MET'MAP v2.0
soon released !

Expected late october,
this new version will be
more efficient, smarter,
and hosted on a brand new
server x3 powerfull...
...and still free !


Not compatible ?
Try the mobile version !

LOG IN : | Subscribe | Disclaimer | Who is Orbifly ? |
ICAO code :
Legend : VFR Marginal VFR IFR Intensive IFR Very Intensive IFR
Visi :
Ceiling :
>= 8 km
>= 3000ft
5 to 8 km
1000 to 3000 ft
1500m to 5 km
500 to 1000 ft
800 to 1500m
200 to 500 ft
< 800m
< 200 ft

METAR - EGPF Glasgow - 21 Sep 2019 04:30 UTC - Data Source NOAA   



- Airport Elevation : 26 ft
- IATA code : GLA
- Download approach charts
- No reported NOTAMs.


EGPF - Glasgow

Latest METAR recorded : 2015/08/11 07:50 EGPF 110750Z 23007KT 9999 FEW016 SCT022 BKN027 14/12 Q1018
TAF TAF EGPF
Valid from the 21 at 00:00 until the 22 at 00:00 UTC


202256Z 2100/2124 09008KT CAVOK
TEMPO 2100/2108 6000
PROB30
TEMPO 2103/2106 3000 BR NSC

Source NOAA
ATIS : +44 141 887 7449


MET'MAP, your aeronautical weather chart ! - Copyright ORBIFLY December 2007

Programming & Development : Alexandra Zaïnal
Co-Developer : Marc-Olivier Méhu
Technical & hardware support : Manuel Goepfert
Concept & Financing : Baudouin d'Aumeries